Flight Track Log - Related Links

Times and Time Zones

All times are in EDT time to prevent confusion due to time zone crossing. See the N516QS flight status page for this flight to view local times or setup timezone preferences in your user account.

Time Position Orientation Groundspeed Altitude Reporting Facility
EDT Latitude Longitude Course Direction KTS MPH feet Rate Location/Type
Mon 11:33:05 AM 41.6256 -70.4100 270° West 199 229 6,400  Level Boston Center
Mon 11:34:05 AM 41.6500 -70.4953 291° West 211 243 9,000 2,400 Climbing Boston Center
Mon 11:35:05 AM 41.6603 -70.6006 277° West 253 291 11,200 2,100 Climbing Boston Center
Mon 11:36:05 AM 41.6703 -70.7197 276° West 302 348 13,200 2,150 Climbing Boston Center
Mon 11:37:00 AM 41.6936 -70.9663 276° West  Level FlightAware Approximate
Mon 11:37:05 AM 41.6786 -70.8531 275° West 331 381 15,500  Level Boston Center
Mon 11:38:00 AM 41.7000 -71.0831 270° West  Level FlightAware Approximate
Mon 11:38:05 AM 41.6886 -70.9694 277° West 338 389 16,000  Level Boston Center
Mon 11:39:05 AM 41.6986 -71.1111 275° West 350 403 16,000  Level Boston Center
Mon 11:40:05 AM 41.7103 -71.2247 278° West 355 409 16,000  Level Boston Center
Mon 11:41:05 AM 41.7575 -71.3547 296° West 349 402 16,000  Level Boston Center
Mon 11:42:05 AM 41.8000 -71.4597 299° West 356 410 16,000  Level Boston Center
Mon 11:43:05 AM 41.8197 -71.5767 283° West 355 409 16,000  Level Boston Center
Mon 11:44:05 AM 41.8375 -71.7350 279° West 355 409 16,000  Level Boston Center
Mon 11:45:05 AM 41.8508 -71.8547 279° West 361 415 16,000 -250 Level Boston Center
Mon 11:46:05 AM 41.8661 -71.9997 278° West 361 415 15,500 -500 Descending Boston Center
Mon 11:47:05 AM 41.8789 -72.1167 278° West 366 421 15,000 -600 Descending Boston Center
Mon 11:48:05 AM 41.8939 -72.2617 278° West 366 421 14,300 -450 Descending Boston Center
Mon 11:49:05 AM 41.9064 -72.3731 279° West 353 406 14,100 -100 Descending Boston Center
Mon 11:50:05 AM 41.9231 -72.5153 279° West 353 406 14,100  Level Boston Center
Mon 11:51:05 AM 41.9356 -72.6439 277° West 353 406 14,100 -400 Level Boston Center
Mon 11:52:05 AM 41.9081 -72.7664 253° West 339 390 13,300 -818 Descending Boston Center
Mon 11:53:17 AM 41.8703 -72.8556 240° Southwest 339 390 12,300 -591 Descending Boston Center
Mon 11:54:17 AM 41.8114 -73.0028 242° Southwest 334 384 12,000 -100 Descending Boston Center
Mon 11:55:17 AM 41.7692 -73.1053 241° Southwest 339 390 12,100  Climbing Boston Center
Mon 11:56:17 AM 41.7183 -73.2244 240° Southwest 339 390 12,000 -508 Descending Boston Center
Mon 11:58:14 AM 41.6333 -73.4167 239° Southwest 282 325 10,600 -881 Descending New York TRACON
Mon 11:59:14 AM 41.6000 -73.5000 242° Southwest 272 313 9,400 -1,350 Descending New York TRACON
Mon 12:00:14 PM 41.5333 -73.5500 209° Southwest 286 329 7,900 -1,524 Descending New York TRACON
Mon 12:01:20 PM 41.4333 -73.5500 180° South 281 323 6,200 -1,500 Descending New York TRACON
Mon 12:02:14 PM 41.3833 -73.5667 194° South 273 314 4,900 -1,158 Descending New York TRACON
Mon 12:03:14 PM 41.3000 -73.5667 180° South 265 305 4,000 -850 Descending New York TRACON
Mon 12:04:14 PM 41.2333 -73.5833 191° South 247 284 3,200 -950 Descending New York TRACON
Mon 12:05:14 PM 41.1667 -73.5833 180° South 233 268 2,100 -600 Descending New York TRACON
Mon 12:06:14 PM 41.1167 -73.6000 194° South 207 238 2,000 -48 Descending New York TRACON
Mon 12:07:20 PM 41.0500 -73.5833 169° South 209 241 2,000  Level New York TRACON
Mon 12:08:14 PM 41.0000 -73.5833 180° South 186 214 2,000  Level New York TRACON
Mon 12:09:20 PM 41.0000 -73.6333 270° West 169 194 2,000 -400 Level New York TRACON
Mon 12:10:14 PM 41.0167 -73.6667 304° West 155 178 1,200 -750 Descending New York TRACON
Mon 12:11:20 PM 41.0500 -73.7000 323° Northwest 122 140 500 -636 Descending New York TRACON
Mon 12:13:00 PM 41.0669 -73.7076 346° North  Level Estimated
Mon 12:20:00 PM 41.0669 -73.7076 153° Southeast  Level Estimated

Login

Don't have an account? Register now (free) for customized features, flight alerts, and more!